Time;durP1;ratioP1;P1;durP2;ratioP2;P2;SDS_P1;SDS_P2;PMS_P1;PMS_P2;Temp;Humidity;BMP_temperature;BMP_pressure;BME280_temperature;BME280_humidity;BME280_pressure;Samples;Min_cycle;Max_cycle;Signal;HPM_P1;HPM_P2
2022/05/22 00:01:58;;;;;;;4.40;2.30;;;;;;;;;;4989123;28;20192;-82
2022/05/22 00:05:02;;;;;;;3.37;2.57;;;;;;;;;;5013828;28;20169;-82
2022/05/22 00:08:07;;;;;;;3.90;2.70;;;;;;;;;;5024071;28;20188;-83
2022/05/22 00:11:11;;;;;;;2.77;2.40;;;;;;;;;;5013663;28;20173;-82
2022/05/22 00:14:16;;;;;;;3.63;2.63;;;;;;;;;;5005123;28;20178;-82
2022/05/22 00:17:21;;;;;;;4.20;2.50;;;;;;;;;;5005240;28;20181;-82
2022/05/22 00:20:25;;;;;;;4.23;2.57;;;;;;;;;;5000348;28;20189;-82
2022/05/22 00:23:31;;;;;;;4.47;2.70;;;;;;;;;;4993906;28;20217;-82
2022/05/22 00:26:36;;;;;;;3.73;2.33;;;;;;;;;;4993810;28;20217;-82
2022/05/22 00:29:40;;;;;;;3.13;2.57;;;;;;;;;;4994247;28;20185;-82
2022/05/22 00:32:44;;;;;;;3.23;2.53;;;;;;;;;;5012754;28;20184;-82
2022/05/22 00:35:51;;;;;;;3.67;2.50;;;;;;;;;;5032824;28;20562;-82
2022/05/22 00:38:55;;;;;;;4.07;2.80;;;;;;;;;;5044889;28;20176;-82
2022/05/22 00:42:01;;;;;;;3.03;2.53;;;;;;;;;;5016770;28;20185;-82
2022/05/22 00:45:07;;;;;;;3.67;2.83;;;;;;;;;;5001741;28;20209;-82
2022/05/22 00:48:11;;;;;;;6.00;2.37;;;;;;;;;;5025227;28;20200;-82
2022/05/22 00:51:32;;;;;;;2.27;2.07;;;;;;;;;;5001861;28;20181;-82
2022/05/22 00:54:49;;;;;;;2.77;2.40;;;;;;;;;;5004630;28;20186;-82
2022/05/22 00:58:05;;;;;;;2.90;2.20;;;;;;;;;;4992223;28;20541;-82
2022/05/22 01:01:11;;;;;;;5.93;2.43;;;;;;;;;;5040588;28;20192;-82
2022/05/22 01:04:22;;;;;;;4.57;2.57;;;;;;;;;;4992881;28;20201;-82
2022/05/22 01:07:29;;;;;;;2.90;2.60;;;;;;;;;;4999696;28;20197;-82
2022/05/22 01:10:37;;;;;;;2.57;2.37;;;;;;;;;;4989810;28;20197;-83
2022/05/22 01:13:44;;;;;;;2.93;2.63;;;;;;;;;;5011459;28;20180;-82
2022/05/22 01:16:50;;;;;;;8.90;2.60;;;;;;;;;;5001039;28;20212;-82
2022/05/22 01:19:59;;;;;;;5.53;2.07;;;;;;;;;;5001695;28;20180;-82
2022/05/22 01:23:04;;;;;;;4.20;2.60;;;;;;;;;;4992179;28;20209;-82
2022/05/22 01:26:09;;;;;;;3.40;2.50;;;;;;;;;;4992443;28;20561;-82
2022/05/22 01:29:14;;;;;;;5.67;2.90;;;;;;;;;;4981618;28;20174;-82
2022/05/22 01:32:18;;;;;;;3.03;2.30;;;;;;;;;;5005269;28;20187;-82
2022/05/22 01:35:27;;;;;;;3.70;2.30;;;;;;;;;;5031627;28;20216;-82
2022/05/22 01:38:34;;;;;;;3.23;2.57;;;;;;;;;;5031834;28;20636;-82
2022/05/22 01:41:38;;;;;;;3.73;2.20;;;;;;;;;;5030990;28;20180;-82
2022/05/22 01:44:43;;;;;;;4.10;2.50;;;;;;;;;;5010392;28;20208;-82
2022/05/22 01:47:48;;;;;;;2.60;2.27;;;;;;;;;;5020599;28;20177;-82
2022/05/22 01:50:52;;;;;;;3.37;2.37;;;;;;;;;;5019818;28;20196;-83
2022/05/22 01:53:58;;;;;;;3.13;2.27;;;;;;;;;;4992985;28;20565;-82
2022/05/22 01:57:03;;;;;;;2.33;2.10;;;;;;;;;;4992929;28;20217;-82
2022/05/22 02:00:12;;;;;;;2.73;2.30;;;;;;;;;;5039304;28;20651;-83
2022/05/22 02:03:21;;;;;;;5.03;2.20;;;;;;;;;;5042804;28;20216;-82
2022/05/22 02:06:25;;;;;;;4.67;2.73;;;;;;;;;;5031227;28;20667;-82
2022/05/22 02:09:29;;;;;;;4.10;2.40;;;;;;;;;;5011944;28;20197;-82
2022/05/22 02:12:34;;;;;;;3.20;2.50;;;;;;;;;;5008195;28;20205;-82
2022/05/22 02:15:40;;;;;;;3.87;2.30;;;;;;;;;;5011960;28;20212;-82
2022/05/22 02:18:45;;;;;;;4.00;2.20;;;;;;;;;;5035237;28;20192;-82
2022/05/22 02:21:49;;;;;;;5.57;2.70;;;;;;;;;;5004302;28;20659;-82
2022/05/22 02:24:54;;;;;;;3.53;2.30;;;;;;;;;;5019833;28;20200;-82
2022/05/22 02:28:01;;;;;;;3.03;2.30;;;;;;;;;;5013864;28;20204;-82
2022/05/22 02:31:06;;;;;;;5.43;2.77;;;;;;;;;;5000759;28;20181;-82
2022/05/22 02:34:10;;;;;;;2.63;2.37;;;;;;;;;;4991845;28;20181;-82
2022/05/22 02:37:15;;;;;;;4.90;2.57;;;;;;;;;;5031817;28;20555;-82
2022/05/22 02:40:22;;;;;;;3.27;2.20;;;;;;;;;;5019341;28;20192;-82
2022/05/22 02:43:31;;;;;;;3.67;2.57;;;;;;;;;;5030651;28;20212;-82
2022/05/22 02:46:35;;;;;;;3.77;2.60;;;;;;;;;;5021395;28;20224;-82
2022/05/22 02:49:39;;;;;;;3.57;2.20;;;;;;;;;;4999805;28;20196;-82
2022/05/22 02:52:43;;;;;;;4.53;2.50;;;;;;;;;;4999721;28;20204;-82
2022/05/22 02:55:48;;;;;;;4.70;2.80;;;;;;;;;;5007853;28;20213;-82
2022/05/22 02:58:53;;;;;;;4.23;2.77;;;;;;;;;;5030050;28;20188;-82
2022/05/22 03:01:57;;;;;;;4.63;2.70;;;;;;;;;;5031072;28;20176;-82
2022/05/22 03:05:01;;;;;;;7.03;2.80;;;;;;;;;;5041337;28;20204;-82
2022/05/22 03:08:07;;;;;;;3.47;2.43;;;;;;;;;;4991381;28;20209;-82
2022/05/22 03:11:15;;;;;;;3.97;2.57;;;;;;;;;;4995494;28;20181;-82
2022/05/22 03:14:20;;;;;;;4.50;2.67;;;;;;;;;;5022222;28;20180;-82
2022/05/22 03:17:25;;;;;;;3.20;2.40;;;;;;;;;;5013923;28;20192;-82
2022/05/22 03:20:31;;;;;;;5.13;2.77;;;;;;;;;;5030404;28;20176;-82
2022/05/22 03:23:38;;;;;;;4.43;2.47;;;;;;;;;;5019125;28;20216;-82
2022/05/22 03:26:42;;;;;;;2.90;2.60;;;;;;;;;;5012641;28;20220;-82
2022/05/22 03:29:48;;;;;;;4.50;2.40;;;;;;;;;;4980406;28;20185;-82
2022/05/22 03:32:52;;;;;;;2.80;2.10;;;;;;;;;;5002441;28;20628;-82
2022/05/22 03:35:57;;;;;;;2.80;2.30;;;;;;;;;;4999174;28;20227;-82
2022/05/22 03:39:02;;;;;;;3.57;2.33;;;;;;;;;;5015306;28;20201;-82
2022/05/22 03:42:06;;;;;;;2.70;2.10;;;;;;;;;;4999821;28;20525;-82
2022/05/22 03:45:13;;;;;;;3.37;2.53;;;;;;;;;;5000391;28;20707;-82
2022/05/22 03:48:19;;;;;;;4.27;2.50;;;;;;;;;;5003126;28;20174;-82
2022/05/22 03:51:24;;;;;;;3.63;2.30;;;;;;;;;;4991595;28;20181;-82
2022/05/22 03:54:30;;;;;;;2.67;2.43;;;;;;;;;;4991345;28;20181;-82
2022/05/22 03:57:38;;;;;;;4.73;2.57;;;;;;;;;;5010558;28;20575;-82
2022/05/22 04:00:43;;;;;;;4.60;2.70;;;;;;;;;;5013761;28;20188;-82
2022/05/22 04:03:47;;;;;;;3.03;2.40;;;;;;;;;;5030394;28;20204;-83
2022/05/22 04:06:55;;;;;;;4.53;3.00;;;;;;;;;;4998739;28;20569;-82
2022/05/22 04:10:05;;;;;;;2.83;2.53;;;;;;;;;;4990995;28;20201;-82
2022/05/22 04:13:12;;;;;;;4.20;2.70;;;;;;;;;;5002356;28;20182;-82
2022/05/22 04:16:17;;;;;;;4.47;2.27;;;;;;;;;;5027463;28;20216;-82
2022/05/22 04:19:22;;;;;;;4.50;3.37;;;;;;;;;;5016701;28;20636;-82
2022/05/22 04:22:26;;;;;;;3.83;2.57;;;;;;;;;;5015694;28;20204;-81
2022/05/22 04:25:30;;;;;;;4.67;2.60;;;;;;;;;;4995708;28;20233;-83
2022/05/22 04:28:35;;;;;;;4.20;2.67;;;;;;;;;;4999388;28;20532;-82
2022/05/22 04:31:46;;;;;;;3.17;2.50;;;;;;;;;;5020710;28;20192;-82
2022/05/22 04:34:59;;;;;;;4.03;2.57;;;;;;;;;;5032907;28;20528;-82
2022/05/22 04:38:06;;;;;;;6.63;2.63;;;;;;;;;;5033737;28;20192;-82
2022/05/22 04:41:11;;;;;;;3.67;2.30;;;;;;;;;;4997903;28;20194;-82
2022/05/22 04:44:16;;;;;;;4.40;2.50;;;;;;;;;;5018184;28;20213;-82
2022/05/22 04:47:20;;;;;;;3.53;2.37;;;;;;;;;;5028371;28;20188;-82
2022/05/22 04:50:46;;;;;;;3.43;2.57;;;;;;;;;;5033895;28;20497;-82
2022/05/22 04:54:11;;;;;;;4.50;2.70;;;;;;;;;;5043734;28;20172;-82
2022/05/22 04:57:20;;;;;;;5.23;2.80;;;;;;;;;;4996873;28;20205;-82
2022/05/22 05:00:23;;;;;;;8.97;3.50;;;;;;;;;;4981865;28;20201;-82
2022/05/22 05:03:45;;;;;;;4.30;3.40;;;;;;;;;;5004364;28;20190;-82
2022/05/22 05:06:52;;;;;;;4.27;3.17;;;;;;;;;;5006683;28;20216;-82
2022/05/22 05:10:29;;;;;;;5.20;3.40;;;;;;;;;;4992667;28;20197;-82
2022/05/22 05:13:47;;;;;;;3.83;3.50;;;;;;;;;;5023036;28;20192;-82
2022/05/22 05:16:52;;;;;;;10.83;3.40;;;;;;;;;;5007452;28;20563;-82
2022/05/22 05:19:57;;;;;;;4.17;3.33;;;;;;;;;;5020118;28;20631;-82
2022/05/22 05:23:05;;;;;;;4.20;3.37;;;;;;;;;;5012218;28;20189;-82
2022/05/22 05:26:20;;;;;;;7.13;3.50;;;;;;;;;;5012807;28;20217;-83
2022/05/22 05:29:25;;;;;;;7.13;4.23;;;;;;;;;;5021093;28;20184;-86
2022/05/22 05:32:30;;;;;;;4.10;3.50;;;;;;;;;;5031986;28;20172;-82
2022/05/22 05:35:34;;;;;;;8.03;3.60;;;;;;;;;;5008217;28;20571;-82
2022/05/22 05:38:41;;;;;;;3.90;3.50;;;;;;;;;;5031342;28;20517;-82
2022/05/22 05:41:47;;;;;;;4.17;3.17;;;;;;;;;;5020835;28;20176;-82
2022/05/22 05:44:53;;;;;;;6.23;3.60;;;;;;;;;;5011688;28;20212;-82
2022/05/22 05:48:03;;;;;;;6.23;3.80;;;;;;;;;;5031961;28;20200;-82
2022/05/22 05:51:23;;;;;;;5.63;3.60;;;;;;;;;;4997112;28;20193;-82
2022/05/22 05:54:32;;;;;;;5.60;3.63;;;;;;;;;;4998780;28;20541;-83
2022/05/22 05:58:03;;;;;;;4.30;3.67;;;;;;;;;;5026171;28;20193;-83
2022/05/22 06:01:10;;;;;;;4.50;3.40;;;;;;;;;;5012700;28;20188;-82
2022/05/22 06:04:15;;;;;;;4.17;3.73;;;;;;;;;;5018769;28;20216;-82
2022/05/22 06:07:20;;;;;;;7.47;3.50;;;;;;;;;;5004519;28;20205;-82
2022/05/22 06:10:25;;;;;;;4.77;3.30;;;;;;;;;;5002699;28;20545;-82
2022/05/22 06:13:50;;;;;;;3.73;3.20;;;;;;;;;;5002758;28;20636;-82
2022/05/22 06:16:54;;;;;;;6.00;3.60;;;;;;;;;;4991708;28;20217;-82
2022/05/22 06:20:00;;;;;;;6.03;3.40;;;;;;;;;;5003198;28;20181;-82
2022/05/22 06:23:08;;;;;;;6.87;3.90;;;;;;;;;;4991817;28;20182;-82
2022/05/22 06:26:31;;;;;;;7.37;3.87;;;;;;;;;;5002976;28;20209;-82
2022/05/22 06:30:03;;;;;;;5.53;3.67;;;;;;;;;;5001976;28;20205;-82
2022/05/22 06:33:16;;;;;;;5.10;3.70;;;;;;;;;;5003029;28;20190;-82
2022/05/22 06:36:38;;;;;;;4.20;3.10;;;;;;;;;;4982682;28;20229;-82
2022/05/22 06:40:02;;;;;;;3.80;3.40;;;;;;;;;;4994451;28;20521;-82
2022/05/22 06:43:24;;;;;;;6.47;3.27;;;;;;;;;;5005624;28;20178;-82
2022/05/22 06:47:04;;;;;;;4.00;2.77;;;;;;;;;;5002445;28;20209;-82
2022/05/22 06:50:43;;;;;;;5.43;2.80;;;;;;;;;;4975261;28;20180;-82
2022/05/22 06:54:10;;;;;;;4.80;2.37;;;;;;;;;;5002143;28;20549;-82
2022/05/22 06:57:29;;;;;;;4.77;2.07;;;;;;;;;;5002103;28;20181;-82
2022/05/22 07:00:55;;;;;;;5.57;2.60;;;;;;;;;;4991795;28;20186;-82
2022/05/22 07:04:10;;;;;;;2.70;2.20;;;;;;;;;;4992407;28;20625;-82
2022/05/22 07:07:21;;;;;;;4.20;2.37;;;;;;;;;;5001720;28;20193;-82
2022/05/22 07:14:17;;;;;;;4.17;1.87;;;;;;;;;;5003748;28;20177;-82
2022/05/22 07:17:43;;;;;;;3.53;2.33;;;;;;;;;;5002488;28;20186;-81
2022/05/22 07:21:06;;;;;;;4.97;1.73;;;;;;;;;;5004650;28;20186;-81
2022/05/22 07:24:28;;;;;;;2.13;1.23;;;;;;;;;;5002038;28;20526;-81
2022/05/22 07:28:04;;;;;;;3.77;1.37;;;;;;;;;;4990936;28;20201;-81
2022/05/22 07:31:47;;;;;;;5.13;1.57;;;;;;;;;;4955618;28;20203;-82
2022/05/22 07:35:06;;;;;;;3.07;1.40;;;;;;;;;;4964728;28;20230;-82
2022/05/22 07:38:31;;;;;;;2.57;1.10;;;;;;;;;;4993630;28;20185;-82
2022/05/22 07:41:40;;;;;;;2.40;1.00;;;;;;;;;;4991501;28;20181;-82
2022/05/22 07:45:05;;;;;;;6.53;1.30;;;;;;;;;;4990659;28;20229;-81
2022/05/22 07:48:32;;;;;;;5.27;1.30;;;;;;;;;;4994816;28;20178;-82
2022/05/22 07:51:53;;;;;;;2.27;1.20;;;;;;;;;;4990973;28;20182;-82
2022/05/22 07:55:18;;;;;;;3.73;1.30;;;;;;;;;;4993182;28;20214;-82
2022/05/22 07:58:41;;;;;;;4.60;1.20;;;;;;;;;;5013489;28;20178;-82
2022/05/22 08:01:45;;;;;;;7.23;1.70;;;;;;;;;;5002167;28;20186;-82
2022/05/22 08:04:51;;;;;;;1.90;1.10;;;;;;;;;;5001747;28;20215;-82
2022/05/22 08:08:16;;;;;;;3.37;1.27;;;;;;;;;;4997020;28;20186;-82
2022/05/22 08:11:50;;;;;;;6.23;1.30;;;;;;;;;;5005257;28;20202;-82
2022/05/22 08:14:54;;;;;;;2.80;1.10;;;;;;;;;;4983352;28;20648;-83
2022/05/22 08:17:59;;;;;;;3.30;1.10;;;;;;;;;;5007368;28;20664;-84
2022/05/22 08:21:04;;;;;;;2.28;1.02;;;;;;;;;;4996775;28;20207;-83
2022/05/22 08:24:12;;;;;;;2.70;1.20;;;;;;;;;;4997357;28;20182;-83
2022/05/22 08:27:18;;;;;;;4.05;1.30;;;;;;;;;;4996104;28;20195;-83
2022/05/22 08:30:24;;;;;;;3.40;1.30;;;;;;;;;;5007787;28;20181;-82
2022/05/22 08:33:29;;;;;;;2.35;1.20;;;;;;;;;;4996613;28;20637;-83
2022/05/22 08:36:33;;;;;;;1.52;1.02;;;;;;;;;;5006970;28;20224;-83
2022/05/22 08:39:37;;;;;;;5.88;1.60;;;;;;;;;;5007704;28;20200;-83
2022/05/22 08:42:43;;;;;;;2.10;1.10;;;;;;;;;;5006442;28;20183;-83
2022/05/22 08:45:56;;;;;;;3.25;1.05;;;;;;;;;;4994411;28;20229;-83
2022/05/22 08:49:09;;;;;;;6.80;1.13;;;;;;;;;;5005690;28;20628;-82
2022/05/22 08:52:29;;;;;;;2.75;1.10;;;;;;;;;;5005259;28;20200;-84
2022/05/22 08:59:10;;;;;;;4.28;1.23;;;;;;;;;;5017060;28;20637;-82
2022/05/22 09:02:21;;;;;;;5.93;1.13;;;;;;;;;;5004823;28;20184;-82
2022/05/22 09:05:29;;;;;;;2.40;1.00;;;;;;;;;;5004342;28;20576;-82
2022/05/22 09:08:49;;;;;;;2.83;1.30;;;;;;;;;;5006392;28;20182;-82
2022/05/22 09:11:59;;;;;;;3.20;1.10;;;;;;;;;;5017149;28;20186;-83
2022/05/22 09:15:18;;;;;;;2.13;1.35;;;;;;;;;;4993597;28;20185;-83
2022/05/22 09:18:30;;;;;;;2.00;1.17;;;;;;;;;;5015880;28;20530;-83
2022/05/22 09:21:53;;;;;;;2.20;1.10;;;;;;;;;;5004718;28;20190;-83
2022/05/22 09:25:11;;;;;;;2.65;1.13;;;;;;;;;;5017354;28;20538;-83
2022/05/22 09:28:24;;;;;;;3.28;1.23;;;;;;;;;;4996506;28;20538;-83
2022/05/22 09:31:57;;;;;;;4.55;1.40;;;;;;;;;;5005866;28;20194;-82
2022/05/22 09:35:14;;;;;;;4.20;1.20;;;;;;;;;;5014238;28;20193;-84
2022/05/22 09:38:25;;;;;;;4.68;1.02;;;;;;;;;;5018417;28;20194;-83
2022/05/22 09:41:47;;;;;;;2.83;1.33;;;;;;;;;;4983571;28;20526;-83
2022/05/22 09:45:06;;;;;;;2.63;0.93;;;;;;;;;;5006182;28;20617;-83
2022/05/22 09:48:23;;;;;;;3.00;1.10;;;;;;;;;;4993485;28;20490;-83
2022/05/22 09:52:07;;;;;;;2.10;0.98;;;;;;;;;;4993611;28;20186;-83
2022/05/22 09:55:11;;;;;;;3.08;1.20;;;;;;;;;;4967095;28;20239;-83
2022/05/22 09:58:34;;;;;;;2.13;0.85;;;;;;;;;;5004039;28;20186;-83
2022/05/22 10:01:49;;;;;;;2.90;1.17;;;;;;;;;;5004264;28;20179;-83
2022/05/22 10:05:33;;;;;;;23.58;17.85;;;;;;;;;;5003869;28;20542;-83
2022/05/22 10:08:51;;;;;;;3.17;1.50;;;;;;;;;;5003672;28;20194;-83
2022/05/22 10:12:38;;;;;;;1.92;1.10;;;;;;;;;;4992209;28;20194;-83
2022/05/22 10:16:16;;;;;;;2.10;1.10;;;;;;;;;;5003560;28;20218;-83
2022/05/22 10:19:39;;;;;;;2.17;1.40;;;;;;;;;;5015061;28;20182;-83
2022/05/22 10:23:00;;;;;;;3.60;1.20;;;;;;;;;;4981049;28;20170;-83
2022/05/22 10:26:23;;;;;;;4.28;1.13;;;;;;;;;;5015484;28;20226;-84
2022/05/22 10:29:40;;;;;;;2.47;0.93;;;;;;;;;;4992129;28;20190;-83
2022/05/22 10:33:02;;;;;;;2.50;0.95;;;;;;;;;;5003699;28;20174;-83
2022/05/22 10:36:20;;;;;;;4.28;0.90;;;;;;;;;;5025863;23;20217;31
2022/05/22 10:39:24;;;;;;;1.60;0.93;;;;;;;;;;4975458;28;20211;-84
2022/05/22 10:42:47;;;;;;;2.20;1.08;;;;;;;;;;4966252;28;20183;-84
2022/05/22 10:45:53;;;;;;;2.15;0.90;;;;;;;;;;4966041;28;20207;-83
2022/05/22 10:48:59;;;;;;;2.13;0.80;;;;;;;;;;4996145;28;20186;-83
2022/05/22 10:52:04;;;;;;;2.00;1.00;;;;;;;;;;4984791;28;20202;-83
2022/05/22 10:55:27;;;;;;;1.90;1.10;;;;;;;;;;4995987;28;20198;-83
2022/05/22 10:58:35;;;;;;;1.92;1.10;;;;;;;;;;4985459;28;20179;-83
2022/05/22 11:01:40;;;;;;;2.40;0.95;;;;;;;;;;4985354;28;20182;-83
2022/05/22 11:04:45;;;;;;;2.25;0.90;;;;;;;;;;4973845;28;20186;-83
2022/05/22 11:07:53;;;;;;;3.53;1.10;;;;;;;;;;4984566;28;20206;-83
2022/05/22 11:11:14;;;;;;;3.42;1.10;;;;;;;;;;4974376;28;20187;-83
2022/05/22 11:14:22;;;;;;;3.03;1.00;;;;;;;;;;4985336;28;20637;-83
2022/05/22 11:17:26;;;;;;;2.28;0.98;;;;;;;;;;4962825;28;20583;-83
2022/05/22 11:20:30;;;;;;;1.90;0.82;;;;;;;;;;4973815;28;20187;-83
2022/05/22 11:23:52;;;;;;;2.05;0.90;;;;;;;;;;4962670;28;20183;-83
2022/05/22 11:27:15;;;;;;;2.58;1.15;;;;;;;;;;4995713;28;20693;-83
2022/05/22 11:30:33;;;;;;;2.13;1.00;;;;;;;;;;4984394;28;20641;-83
2022/05/22 11:34:05;;;;;;;2.50;1.05;;;;;;;;;;4984623;28;20187;-83
2022/05/22 11:37:20;;;;;;;2.53;1.10;;;;;;;;;;4984316;28;20218;-83
2022/05/22 11:40:36;;;;;;;1.55;1.00;;;;;;;;;;4984899;28;20194;-83
2022/05/22 11:44:06;;;;;;;1.60;1.08;;;;;;;;;;4988458;28;20198;-83
2022/05/22 11:47:31;;;;;;;1.48;1.00;;;;;;;;;;4988388;28;20225;-83
2022/05/22 11:50:56;;;;;;;2.75;1.02;;;;;;;;;;4973495;28;20206;-83
2022/05/22 11:54:25;;;;;;;2.17;1.17;;;;;;;;;;4977234;28;20182;-83
2022/05/22 11:57:43;;;;;;;2.15;0.90;;;;;;;;;;4988157;28;20217;-83
2022/05/22 12:00:58;;;;;;;4.68;1.20;;;;;;;;;;4977249;28;20187;-83
2022/05/22 12:04:33;;;;;;;1.85;1.10;;;;;;;;;;4987845;28;20183;-83
2022/05/22 12:07:55;;;;;;;2.28;1.15;;;;;;;;;;4998567;28;20218;-83
2022/05/22 12:11:24;;;;;;;1.52;0.90;;;;;;;;;;4999397;28;20182;-83
2022/05/22 12:14:53;;;;;;;2.95;1.00;;;;;;;;;;4996149;28;20194;-87
2022/05/22 12:18:14;;;;;;;2.58;1.02;;;;;;;;;;4970389;28;20217;-86
2022/05/22 12:21:24;;;;;;;1.17;1.08;;;;;;;;;;4974817;28;20194;-85
2022/05/22 12:24:50;;;;;;;2.88;1.02;;;;;;;;;;4986226;28;20183;-83
2022/05/22 12:27:57;;;;;;;2.60;0.93;;;;;;;;;;4973791;28;20705;-89
2022/05/22 12:31:06;;;;;;;1.60;0.82;;;;;;;;;;4955001;28;20682;-85
2022/05/22 12:34:13;;;;;;;2.92;0.90;;;;;;;;;;4954361;28;20183;-85
2022/05/22 12:37:44;;;;;;;2.47;1.20;;;;;;;;;;4965356;28;20227;-84
2022/05/22 12:40:51;;;;;;;2.05;1.10;;;;;;;;;;4976918;28;20207;-84
2022/05/22 12:43:58;;;;;;;2.08;0.98;;;;;;;;;;4984330;28;20191;-84
2022/05/22 12:47:13;;;;;;;2.95;0.90;;;;;;;;;;4983779;28;20574;-84
2022/05/22 12:50:32;;;;;;;2.58;0.98;;;;;;;;;;4973589;28;20203;-84
2022/05/22 12:53:39;;;;;;;4.97;1.30;;;;;;;;;;4983250;28;20195;-84
2022/05/22 12:56:44;;;;;;;2.10;1.10;;;;;;;;;;4984200;28;20218;-84
2022/05/22 13:00:09;;;;;;;2.53;1.15;;;;;;;;;;4984348;28;20186;-84
2022/05/22 13:03:14;;;;;;;2.00;0.80;;;;;;;;;;4972918;28;20186;-84
2022/05/22 13:06:21;;;;;;;4.05;1.13;;;;;;;;;;4995233;28;20210;-84
2022/05/22 13:09:31;;;;;;;2.45;1.23;;;;;;;;;;4983867;28;20190;-84
2022/05/22 13:12:36;;;;;;;1.65;0.80;;;;;;;;;;4972856;28;20186;-84
2022/05/22 13:16:14;;;;;;;2.88;1.05;;;;;;;;;;4972186;28;20190;-84
2022/05/22 13:19:28;;;;;;;1.73;0.85;;;;;;;;;;4969009;28;20613;-84
2022/05/22 13:22:36;;;;;;;1.95;1.05;;;;;;;;;;4984026;28;20665;-85
2022/05/22 13:25:43;;;;;;;3.13;0.98;;;;;;;;;;4984439;28;20195;-85
2022/05/22 13:28:53;;;;;;;1.35;0.90;;;;;;;;;;4972691;28;20182;-85
2022/05/22 13:32:00;;;;;;;1.92;0.90;;;;;;;;;;4972342;28;20202;-85
2022/05/22 13:35:14;;;;;;;1.52;0.93;;;;;;;;;;4972636;28;20190;-85
2022/05/22 13:38:22;;;;;;;3.38;1.00;;;;;;;;;;4972554;28;20230;-85
2022/05/22 13:41:48;;;;;;;1.40;1.10;;;;;;;;;;4973198;28;20203;-85
2022/05/22 13:45:28;;;;;;;1.30;0.85;;;;;;;;;;4972251;28;20199;-85
2022/05/22 13:48:58;;;;;;;2.33;1.00;;;;;;;;;;4971584;28;20190;-85
2022/05/22 13:55:29;;;;;;;4.10;1.00;;;;;;;;;;4994534;28;20194;-85
2022/05/22 13:58:38;;;;;;;2.17;1.08;;;;;;;;;;4971554;28;20175;-86
2022/05/22 14:01:42;;;;;;;2.88;1.10;;;;;;;;;;4980813;28;20186;-86
2022/05/22 14:04:49;;;;;;;1.38;0.80;;;;;;;;;;4994359;28;20202;-86
2022/05/22 14:07:53;;;;;;;1.00;0.90;;;;;;;;;;4971505;28;20218;-85
2022/05/22 14:11:07;;;;;;;2.10;0.73;;;;;;;;;;4972280;28;20198;-86
2022/05/22 14:14:31;;;;;;;2.35;0.90;;;;;;;;;;4971366;28;20638;-85
2022/05/22 14:17:36;;;;;;;1.45;0.95;;;;;;;;;;4983161;28;20218;-87
2022/05/22 14:20:44;;;;;;;3.25;0.80;;;;;;;;;;4971841;28;20296;-86
2022/05/22 14:27:21;;;;;;;2.45;0.80;;;;;;;;;;4980871;28;20229;-85
2022/05/22 14:30:40;;;;;;;2.38;1.10;;;;;;;;;;4971318;28;20191;-85
2022/05/22 14:33:45;;;;;;;2.75;1.00;;;;;;;;;;4971285;28;20194;-85
2022/05/22 14:36:52;;;;;;;3.30;0.80;;;;;;;;;;4958695;28;20222;-86
2022/05/22 14:39:56;;;;;;;1.92;1.05;;;;;;;;;;4968018;28;20541;-86
2022/05/22 14:43:03;;;;;;;1.25;0.90;;;;;;;;;;4975378;28;20195;-85
2022/05/22 14:46:40;;;;;;;1.23;0.93;;;;;;;;;;4976357;28;20540;-86
2022/05/22 14:49:49;;;;;;;1.80;0.82;;;;;;;;;;4990114;28;20207;-86
2022/05/22 14:53:02;;;;;;;2.45;1.00;;;;;;;;;;4982625;28;20190;-86
2022/05/22 14:56:15;;;;;;;3.28;1.15;;;;;;;;;;4960376;28;20512;-86
2022/05/22 14:59:29;;;;;;;3.00;0.90;;;;;;;;;;4970834;28;20186;-86
2022/05/22 15:02:49;;;;;;;1.48;1.08;;;;;;;;;;4971436;28;20178;-86
2022/05/22 15:05:56;;;;;;;1.30;1.10;;;;;;;;;;4971223;28;20190;-86
2022/05/22 15:09:04;;;;;;;1.70;0.85;;;;;;;;;;4971002;28;20642;-86
2022/05/22 15:12:12;;;;;;;1.30;0.80;;;;;;;;;;4971423;28;20186;-86
2022/05/22 15:15:31;;;;;;;1.83;0.90;;;;;;;;;;4971159;28;20183;-86
2022/05/22 15:25:53;;;;;;;1.48;0.93;;;;;;;;;;4994500;28;20186;-85
2022/05/22 15:29:11;;;;;;;1.92;0.80;;;;;;;;;;4983050;28;20210;-86
2022/05/22 15:32:18;;;;;;;1.90;0.82;;;;;;;;;;4971812;28;20187;-86
2022/05/22 15:35:22;;;;;;;6.63;1.42;;;;;;;;;;4983165;28;20189;-84
2022/05/22 15:38:30;;;;;;;4.00;1.00;;;;;;;;;;4972332;28;20218;-85
2022/05/22 15:41:41;;;;;;;1.40;0.90;;;;;;;;;;4983288;28;20178;-85
2022/05/22 15:44:51;;;;;;;2.25;0.90;;;;;;;;;;4960145;28;20192;-84
2022/05/22 15:51:23;;;;;;;1.27;0.77;;;;;;;;;;4975992;28;20642;-85
2022/05/22 15:54:27;;;;;;;1.75;0.88;;;;;;;;;;4964405;28;20177;-85
2022/05/22 15:57:31;;;;;;;2.05;0.90;;;;;;;;;;4975308;28;20215;-84
2022/05/22 16:00:35;;;;;;;3.70;0.90;;;;;;;;;;4953882;28;20184;-84
2022/05/22 16:03:49;;;;;;;1.92;1.13;;;;;;;;;;4964216;28;20187;-85
2022/05/22 16:06:53;;;;;;;1.98;0.90;;;;;;;;;;4964107;28;20216;-84
2022/05/22 16:09:57;;;;;;;2.30;1.20;;;;;;;;;;4964665;28;20174;-85
2022/05/22 16:13:01;;;;;;;1.80;1.23;;;;;;;;;;4964671;28;20183;-85
2022/05/22 16:16:10;;;;;;;3.10;1.20;;;;;;;;;;4975818;28;20179;-85
2022/05/22 16:19:21;;;;;;;2.37;0.90;;;;;;;;;;4952415;28;20179;-85
2022/05/22 16:22:25;;;;;;;1.73;1.00;;;;;;;;;;4954006;28;20178;-85
2022/05/22 16:25:29;;;;;;;2.43;1.00;;;;;;;;;;4953501;28;20181;-85
2022/05/22 16:28:34;;;;;;;3.10;1.13;;;;;;;;;;4956206;28;20207;-85
2022/05/22 16:31:40;;;;;;;1.80;1.10;;;;;;;;;;4968021;28;20186;-85
2022/05/22 16:34:44;;;;;;;1.20;0.90;;;;;;;;;;4957532;28;20187;-85
2022/05/22 16:37:49;;;;;;;1.90;0.80;;;;;;;;;;5008998;23;20240;-81
2022/05/22 16:40:53;;;;;;;6.40;0.90;;;;;;;;;;5007017;28;20649;-81
2022/05/22 16:43:57;;;;;;;2.80;1.40;;;;;;;;;;5018228;28;20183;-82
2022/05/22 16:53:01;;;;;;;4.33;1.30;;;;;;;;;;5006309;28;20564;-81
2022/05/22 16:53:54;;;;;;;1.77;1.00;;;;;;;;;;5017571;28;20208;-81
2022/05/22 16:56:59;;;;;;;2.23;0.93;;;;;;;;;;5005792;28;20177;-81
2022/05/22 17:00:05;;;;;;;3.40;1.20;;;;;;;;;;4995080;28;20662;-81
2022/05/22 17:03:34;;;;;;;1.97;1.10;;;;;;;;;;5006233;28;20188;-82
2022/05/22 17:06:43;;;;;;;2.23;1.00;;;;;;;;;;4994645;28;20188;-81
2022/05/22 17:09:52;;;;;;;3.20;1.03;;;;;;;;;;4994789;28;20178;-81
2022/05/22 17:12:57;;;;;;;2.27;1.13;;;;;;;;;;4994342;28;20183;-81
2022/05/22 17:16:05;;;;;;;1.43;1.07;;;;;;;;;;4983078;28;20183;-81
2022/05/22 17:19:09;;;;;;;1.40;1.10;;;;;;;;;;5006069;28;20516;-81
2022/05/22 17:22:17;;;;;;;1.73;0.90;;;;;;;;;;4983254;28;20199;-81
2022/05/22 17:25:22;;;;;;;2.27;1.20;;;;;;;;;;4994245;28;20519;-81
2022/05/22 17:28:26;;;;;;;4.60;1.17;;;;;;;;;;4994023;28;20225;-81
2022/05/22 17:31:30;;;;;;;1.33;0.97;;;;;;;;;;5005116;28;20182;-81
2022/05/22 17:34:35;;;;;;;3.37;1.20;;;;;;;;;;5005316;28;20526;-81
2022/05/22 17:37:40;;;;;;;2.23;1.00;;;;;;;;;;4996238;28;20221;-82
2022/05/22 17:40:48;;;;;;;1.67;1.00;;;;;;;;;;5006966;28;20182;-81
2022/05/22 17:43:52;;;;;;;2.57;1.40;;;;;;;;;;4985331;28;20186;-82
2022/05/22 17:46:58;;;;;;;4.40;1.10;;;;;;;;;;4996417;28;20201;-81
2022/05/22 17:50:03;;;;;;;1.60;1.07;;;;;;;;;;4995866;28;20177;-82
2022/05/22 17:53:08;;;;;;;2.90;1.03;;;;;;;;;;4996027;28;20185;-81
2022/05/22 17:56:13;;;;;;;1.90;1.00;;;;;;;;;;5007834;28;20632;-81
2022/05/22 17:59:17;;;;;;;2.07;1.10;;;;;;;;;;5006288;28;20177;-81
2022/05/22 18:02:23;;;;;;;2.57;1.20;;;;;;;;;;5017908;28;20178;-81
2022/05/22 18:05:28;;;;;;;2.40;1.00;;;;;;;;;;4984034;28;20186;-82
2022/05/22 18:08:36;;;;;;;1.83;1.10;;;;;;;;;;4983843;28;20229;-82
2022/05/22 18:18:30;;;;;;;3.30;1.30;;;;;;;;;;4995258;28;20692;-81
2022/05/22 18:21:35;;;;;;;2.73;1.10;;;;;;;;;;4984899;28;20178;-81
2022/05/22 18:28:15;;;;;;;3.57;1.17;;;;;;;;;;5004596;28;20229;-80
2022/05/22 18:31:24;;;;;;;5.33;1.30;;;;;;;;;;4994491;28;20186;-81
2022/05/22 18:34:28;;;;;;;2.03;1.10;;;;;;;;;;4983164;28;20185;-81
2022/05/22 18:37:33;;;;;;;2.80;1.10;;;;;;;;;;4993386;28;20225;-81
2022/05/22 18:40:39;;;;;;;1.47;1.00;;;;;;;;;;4983474;28;20182;-81
2022/05/22 18:43:43;;;;;;;2.97;1.30;;;;;;;;;;4995190;28;20190;-82
2022/05/22 18:46:47;;;;;;;1.67;0.90;;;;;;;;;;4993241;28;20189;-87
2022/05/22 18:49:52;;;;;;;6.47;1.40;;;;;;;;;;4986906;28;20668;-84
2022/05/22 18:52:56;;;;;;;1.97;1.23;;;;;;;;;;4996564;28;20177;-83
2022/05/22 18:56:08;;;;;;;2.90;1.30;;;;;;;;;;5007640;28;20537;-84
2022/05/22 18:59:17;;;;;;;2.27;1.30;;;;;;;;;;4996172;28;20177;-83
2022/05/22 19:02:21;;;;;;;3.13;1.37;;;;;;;;;;5006371;28;20197;-83
2022/05/22 19:05:27;;;;;;;3.00;1.20;;;;;;;;;;4994416;28;20193;-83
2022/05/22 19:08:32;;;;;;;2.17;1.40;;;;;;;;;;5018381;28;20565;-82
2022/05/22 19:11:36;;;;;;;3.53;1.40;;;;;;;;;;4996046;28;20637;-83
2022/05/22 19:14:40;;;;;;;4.40;1.30;;;;;;;;;;5007289;28;20181;-83
2022/05/22 19:17:48;;;;;;;2.80;1.60;;;;;;;;;;4995234;28;20217;-83
2022/05/22 19:20:53;;;;;;;3.17;1.20;;;;;;;;;;4977146;28;20526;-83
2022/05/22 19:23:57;;;;;;;2.80;1.20;;;;;;;;;;4965272;28;20182;-82
2022/05/22 19:27:01;;;;;;;1.47;1.10;;;;;;;;;;4967144;28;20693;-82
2022/05/22 19:30:12;;;;;;;1.60;1.20;;;;;;;;;;4986984;28;20217;-83
2022/05/22 19:33:16;;;;;;;2.13;1.40;;;;;;;;;;4976002;28;20182;-82
2022/05/22 19:36:25;;;;;;;1.43;1.13;;;;;;;;;;4975932;28;20182;-83
2022/05/22 19:39:30;;;;;;;4.37;1.53;;;;;;;;;;4979899;28;20182;-84
2022/05/22 19:46:00;;;;;;;2.60;0.93;;;;;;;;;;4997639;28;20190;-83
2022/05/22 19:49:07;;;;;;;7.93;1.70;;;;;;;;;;4977525;28;20221;-82